Time;durP1;ratioP1;P1;durP2;ratioP2;P2;SDS_P1;SDS_P2;PMS_P1;PMS_P2;Temp;Humidity;BMP_temperature;BMP_pressure;BME280_temperature;BME280_humidity;BME280_pressure;Samples;Min_cycle;Max_cycle;Signal;HPM_P1;HPM_P2
2022/08/28 00:01:34;;;;;;;;;8.00;8.00;;;;;22.38;40.97;100950.06;5042902;28;45862;-83
2022/08/28 00:04:00;;;;;;;;;7.50;7.25;;;;;22.29;40.91;100941.28;5057169;28;46676;-83
2022/08/28 00:06:27;;;;;;;;;9.00;8.75;;;;;22.40;41.40;100972.88;5057131;28;46073;-83
2022/08/28 00:12:14;;;;;;;;;9.25;8.75;;;;;22.29;41.62;100959.97;5056922;28;45748;-82
2022/08/28 00:14:39;;;;;;;;;9.25;9.00;;;;;22.21;41.90;100948.50;5039505;28;48941;-82
2022/08/28 00:17:05;;;;;;;;;10.00;9.00;;;;;22.05;42.29;100933.41;5057758;28;45939;-84
2022/08/28 00:19:30;;;;;;;;;7.00;7.00;;;;;22.15;42.20;100958.03;5058351;28;45656;-81
2022/08/28 00:21:55;;;;;;;;;8.25;8.25;;;;;22.11;42.48;100954.06;5058485;28;45733;-85
2022/08/28 00:27:51;;;;;;;;;9.50;8.00;;;;;22.04;42.60;100955.75;5055219;28;45787;-83
2022/08/28 00:30:28;;;;;;;;;6.50;6.00;;;;;21.90;42.24;100935.13;5067233;28;45673;-83
2022/08/28 00:32:57;;;;;;;;;8.00;8.00;;;;;22.00;42.42;100954.44;5058040;28;45834;-83
2022/08/28 00:35:23;;;;;;;;;8.50;8.00;;;;;21.97;42.46;100954.81;5056868;28;46626;-84
2022/08/28 00:37:49;;;;;;;;;7.25;7.25;;;;;21.95;42.58;100960.31;5040011;28;47168;-85
2022/08/28 00:40:19;;;;;;;;;8.00;7.75;;;;;21.91;42.38;100955.47;5060708;28;45706;-83
2022/08/28 00:42:45;;;;;;;;;6.75;6.75;;;;;21.77;42.82;100944.50;5057198;28;45578;-83
2022/08/28 00:45:13;;;;;;;;;8.25;8.00;;;;;21.90;42.84;100965.31;5057606;28;45625;-80
2022/08/28 00:47:38;;;;;;;;;8.00;7.00;;;;;21.77;42.76;100944.50;5058333;28;45621;-79
2022/08/28 00:50:06;;;;;;;;;6.00;6.00;;;;;21.89;42.64;100968.13;5058959;28;45524;-80
2022/08/28 00:52:32;;;;;;;;;7.25;6.50;;;;;21.79;43.26;100957.69;5059276;28;45688;-80
2022/08/28 00:55:04;;;;;;;;;6.50;5.50;;;;;21.53;42.83;100920.63;5056379;28;45605;-80
2022/08/28 00:57:41;;;;;;;;;6.00;6.00;;;;;21.70;43.45;100956.88;5055711;28;46381;-79
2022/08/28 01:00:10;;;;;;;;;6.25;6.25;;;;;21.75;43.72;100965.19;5055630;28;45776;-82
2022/08/28 01:02:36;;;;;;;;;5.75;5.75;;;;;21.72;43.69;100970.88;5055953;28;45673;-81
2022/08/28 01:05:01;;;;;;;;;7.00;7.00;;;;;21.40;43.67;100920.31;5055708;28;45593;-80
2022/08/28 01:07:27;;;;;;;;;7.00;6.00;;;;;21.60;43.84;100958.91;5055478;28;46078;-82
2022/08/28 01:09:54;;;;;;;;;6.75;6.50;;;;;21.60;44.03;100961.56;5053523;28;45693;-83
2022/08/28 01:12:30;;;;;;;;;6.75;6.75;;;;;21.57;44.19;100961.94;5055663;28;45659;-80
2022/08/28 01:15:00;;;;;;;;;7.25;6.50;;;;;21.44;43.92;100953.63;5055334;28;45923;-83
2022/08/28 01:17:32;;;;;;;;;6.00;6.00;;;;;21.26;44.31;100937.03;5055365;28;46478;-81
2022/08/28 01:20:05;;;;;;;;;6.50;6.50;;;;;21.35;44.33;100952.81;5054978;28;45694;-77
2022/08/28 01:22:36;;;;;;;;;6.00;6.00;;;;;21.46;44.42;100972.97;5055993;28;45589;-80
2022/08/28 01:25:05;;;;;;;;;5.50;5.25;;;;;21.44;44.73;100974.13;5055552;28;45569;-81
2022/08/28 01:27:30;;;;;;;;;6.25;5.50;;;;;21.10;44.85;100913.03;5055633;28;46466;-80
2022/08/28 01:29:56;;;;;;;;;6.00;5.00;;;;;21.36;44.78;100967.00;5054556;28;45941;-80
2022/08/28 01:32:32;;;;;;;;;6.75;6.50;;;;;21.30;44.97;100951.66;5055377;28;45867;-80
2022/08/28 01:34:58;;;;;;;;;5.75;4.50;;;;;21.32;45.07;100957.69;5054693;28;48102;-80
2022/08/28 01:37:23;;;;;;;;;5.00;5.00;;;;;21.23;45.14;100943.50;5054700;28;45664;-80
2022/08/28 01:43:13;;;;;;;;;5.75;5.75;;;;;21.24;45.74;100955.84;5055439;28;45517;-81
2022/08/28 01:45:42;;;;;;;;;5.50;5.50;;;;;21.15;45.51;100951.53;5055191;28;45930;-81
2022/08/28 01:48:08;;;;;;;;;5.25;5.25;;;;;21.15;45.84;100948.88;5055003;28;46448;-84
2022/08/28 01:50:34;;;;;;;;;6.00;5.75;;;;;21.12;46.19;100945.66;5054858;28;45753;-84
2022/08/28 01:53:01;;;;;;;;;6.00;5.00;;;;;20.95;45.74;100924.38;5055185;28;45559;-83
2022/08/28 01:55:27;;;;;;;;;4.75;4.50;;;;;20.94;45.91;100924.56;5054941;28;46516;-82
2022/08/28 01:57:53;;;;;;;;;5.00;4.25;;;;;20.95;46.21;100929.69;5054649;28;46376;-81
2022/08/28 02:00:20;;;;;;;;;6.25;5.50;;;;;20.98;46.58;100941.03;5054568;28;45863;-81
2022/08/28 02:02:50;;;;;;;;;5.25;4.50;;;;;20.89;46.79;100935.69;5054709;28;45735;-80
2022/08/28 02:05:15;;;;;;;;;7.50;6.00;;;;;20.89;46.78;100945.53;5055517;28;46418;-80
2022/08/28 02:07:41;;;;;;;;;6.00;5.50;;;;;20.86;46.79;100944.03;5036968;28;47084;-82
2022/08/28 02:13:28;;;;;;;;;5.50;5.00;;;;;20.79;46.94;100944.84;5055512;28;45599;-80
2022/08/28 02:15:53;;;;;;;;;6.25;6.25;;;;;20.77;47.08;100950.38;5055811;28;45859;-81
2022/08/28 02:18:20;;;;;;;;;5.25;5.25;;;;;20.72;47.05;100947.38;5055854;28;46258;-79
2022/08/28 02:20:45;;;;;;;;;4.00;4.00;;;;;20.44;47.02;100893.63;5054376;28;45755;-79
2022/08/28 02:23:12;;;;;;;;;6.00;6.00;;;;;20.74;47.39;100942.69;5054556;28;45463;-80
2022/08/28 02:25:38;;;;;;;;;6.25;5.50;;;;;20.74;47.03;100952.50;5054150;28;46457;-78
2022/08/28 02:28:03;;;;;;;;;6.00;5.00;;;;;20.69;47.51;100938.88;5053931;28;45715;-82
2022/08/28 02:30:29;;;;;;;;;5.75;5.75;;;;;20.72;47.41;100950.03;5054199;28;45787;-78
2022/08/28 02:32:55;;;;;;;;;7.00;6.25;;;;;20.72;47.69;100949.19;5054355;28;45618;-83
2022/08/28 02:35:22;;;;;;;;;6.00;5.25;;;;;20.68;47.46;100947.84;5053904;28;46503;-79
2022/08/28 02:37:48;;;;;;;;;5.50;4.25;;;;;20.47;47.34;100914.56;5053907;28;45982;-80
2022/08/28 02:43:35;;;;;;;;;6.00;6.00;;;;;20.53;47.86;100927.22;5054025;28;45752;-82
2022/08/28 02:46:02;;;;;;;;;8.00;6.00;;;;;20.67;48.40;100954.19;5054156;28;46414;-78
2022/08/28 02:48:33;;;;;;;;;6.25;6.00;;;;;20.61;48.38;100942.38;5054141;28;46596;-80
2022/08/28 02:51:12;;;;;;;;;4.25;4.25;;;;;20.60;47.88;100946.03;5053161;28;45622;-78
2022/08/28 02:53:38;;;;;;;;;6.00;5.50;;;;;20.59;48.40;100947.03;5054026;28;45669;-80
2022/08/28 02:56:04;;;;;;;;;6.00;5.50;;;;;20.43;48.48;100920.38;5053646;28;46677;-79
2022/08/28 02:58:31;;;;;;;;;6.00;6.00;;;;;20.34;48.39;100908.91;5054127;28;46135;-79
2022/08/28 03:00:58;;;;;;;;;7.25;6.50;;;;;20.33;48.30;100907.25;5053335;28;45829;-79
2022/08/28 03:03:24;;;;;;;;;7.00;7.00;;;;;20.51;48.52;100945.16;5054138;28;45768;-79
2022/08/28 03:05:49;;;;;;;;;6.25;5.75;;;;;20.50;48.77;100940.88;5053784;28;45669;-80
2022/08/28 03:08:15;;;;;;;;;7.00;5.25;;;;;20.44;48.54;100935.38;5053991;28;45780;-79
2022/08/28 03:10:40;;;;;;;;;7.00;7.00;;;;;20.42;48.52;100934.69;5053379;28;45694;-78
2022/08/28 03:13:06;;;;;;;;;6.50;5.75;;;;;20.40;48.75;100932.22;5053887;28;45944;-80
2022/08/28 03:15:31;;;;;;;;;7.00;7.00;;;;;20.36;49.05;100922.03;5054034;28;46394;-79
2022/08/28 03:17:57;;;;;;;;;7.00;5.00;;;;;20.39;48.88;100937.69;5053844;28;45713;-79
2022/08/28 03:20:22;;;;;;;;;5.50;4.50;;;;;20.35;48.95;100925.72;5053143;28;45553;-78
2022/08/28 03:28:56;;;;;;;;;5.25;5.25;;;;;20.36;49.03;100938.00;5051961;28;46549;-79
2022/08/28 03:31:24;;;;;;;;;4.25;4.25;;;;;20.31;49.11;100927.00;5053315;28;45657;-80
2022/08/28 03:33:51;;;;;;;;;7.25;6.00;;;;;20.36;49.29;100935.34;5053631;28;45565;-80
2022/08/28 03:36:20;;;;;;;;;5.00;5.00;;;;;20.29;49.14;100932.50;5053540;28;45864;-79
2022/08/28 03:38:46;;;;;;;;;7.00;5.00;;;;;20.25;49.70;100927.63;5053467;28;46178;-79
2022/08/28 03:41:13;;;;;;;;;6.00;5.25;;;;;20.34;49.40;100940.84;5052978;28;45777;-78
2022/08/28 03:43:40;;;;;;;;;6.25;5.75;;;;;20.26;49.88;100940.78;5054600;28;45796;-79
2022/08/28 03:46:07;;;;;;;;;7.00;7.00;;;;;20.23;49.68;100929.66;5059333;28;45589;-81
2022/08/28 03:48:36;;;;;;;;;7.00;6.50;;;;;20.25;49.53;100927.63;5047743;28;47375;-84
2022/08/28 03:51:06;;;;;;;;;7.00;6.00;;;;;20.21;49.56;100932.47;5042044;28;45395;-85
2022/08/28 03:53:32;;;;;;;;;6.50;5.50;;;;;20.21;49.85;100935.13;5055980;28;45878;-82
2022/08/28 03:55:57;;;;;;;;;4.50;3.75;;;;;20.20;49.89;100937.94;5055247;28;45683;-83
2022/08/28 03:58:23;;;;;;;;;7.00;6.00;;;;;19.88;50.15;100886.34;5037248;28;46967;-83
2022/08/28 04:00:49;;;;;;;;;7.00;6.25;;;;;20.16;50.13;100947.25;5053876;28;45700;-83
2022/08/28 04:03:16;;;;;;;;;8.50;7.00;;;;;20.13;50.22;100934.28;5053990;28;45634;-81
2022/08/28 04:05:43;;;;;;;;;4.50;4.00;;;;;20.08;50.64;100937.44;5056496;28;45805;-79
2022/08/28 04:08:14;;;;;;;;;7.00;7.00;;;;;20.01;50.67;100939.91;5057056;28;46082;-81
2022/08/28 04:14:01;;;;;;;;;6.25;5.75;;;;;19.99;50.34;100939.22;5057824;28;45746;-81
2022/08/28 04:16:27;;;;;;;;;7.25;7.00;;;;;19.94;50.69;100940.72;5059889;28;45694;-81
2022/08/28 04:18:52;;;;;;;;;7.50;7.00;;;;;19.85;51.15;100931.88;5059055;28;46034;-80
2022/08/28 04:21:25;;;;;;;;;7.00;7.00;;;;;19.89;51.15;100943.00;5056647;28;45673;-79
2022/08/28 04:23:52;;;;;;;;;5.25;5.25;;;;;19.82;51.02;100934.84;5056751;28;45716;-79
2022/08/28 04:26:20;;;;;;;;;7.25;7.00;;;;;19.84;51.66;100942.66;5056256;28;45642;-80
2022/08/28 04:28:47;;;;;;;;;6.50;6.00;;;;;19.82;51.83;100949.97;5037574;28;45710;-80
2022/08/28 04:31:13;;;;;;;;;7.75;6.75;;;;;19.80;51.35;100944.81;5037676;28;45908;-79
2022/08/28 04:33:39;;;;;;;;;6.75;6.75;;;;;19.64;51.57;100934.97;5056289;28;45609;-81
2022/08/28 04:36:09;;;;;;;;;5.75;5.75;;;;;19.73;51.78;100948.28;5055833;28;46524;-80
2022/08/28 04:38:35;;;;;;;;;6.00;5.25;;;;;19.68;51.83;100941.63;5055894;28;47101;-79
2022/08/28 04:44:23;;;;;;;;;7.00;7.00;;;;;19.64;51.86;100944.75;5055886;28;45607;-77
2022/08/28 04:46:49;;;;;;;;;6.50;5.00;;;;;19.59;52.09;100942.59;5055828;28;45780;-79
2022/08/28 04:49:15;;;;;;;;;7.00;6.50;;;;;19.52;52.09;100938.03;5055153;28;46433;-79
2022/08/28 04:51:41;;;;;;;;;8.00;7.50;;;;;19.48;52.62;100937.53;5056075;28;45849;-81
2022/08/28 04:54:06;;;;;;;;;5.50;5.00;;;;;19.53;52.29;100964.47;5055854;28;45704;-80
2022/08/28 04:56:32;;;;;;;;;8.00;7.00;;;;;19.52;52.55;100961.97;5055252;28;47313;-79
2022/08/28 04:59:00;;;;;;;;;8.00;7.75;;;;;19.50;52.64;100967.44;5055385;28;46041;-78
2022/08/28 05:01:25;;;;;;;;;8.00;7.50;;;;;19.45;52.61;100968.91;5055478;28;45594;-79
2022/08/28 05:03:57;;;;;;;;;8.25;6.75;;;;;19.41;52.94;100968.34;5055805;28;45514;-79
2022/08/28 05:06:25;;;;;;;;;8.00;6.75;;;;;19.32;52.74;100965.81;5055423;28;47531;-78
2022/08/28 05:08:52;;;;;;;;;9.50;9.25;;;;;19.35;53.32;100971.63;5035535;28;46198;-80
2022/08/28 05:14:39;;;;;;;;;7.00;6.00;;;;;19.25;53.30;100960.28;5055226;28;45654;-79
2022/08/28 05:17:05;;;;;;;;;7.50;7.00;;;;;19.33;53.31;100980.75;5055429;28;47444;-79
2022/08/28 05:19:31;;;;;;;;;8.50;7.50;;;;;19.33;53.21;100978.91;5054798;28;46205;-78
2022/08/28 05:21:57;;;;;;;;;6.00;6.00;;;;;19.25;53.44;100979.72;5037214;28;45735;-79
2022/08/28 05:24:22;;;;;;;;;8.25;7.00;;;;;19.28;53.75;100990.03;5055515;28;45764;-78
2022/08/28 05:26:48;;;;;;;;;6.00;6.00;;;;;19.29;53.42;100990.84;5055734;28;45693;-80
2022/08/28 05:29:13;;;;;;;;;7.00;7.00;;;;;19.25;53.52;100990.34;5054934;28;46948;-79
2022/08/28 05:31:39;;;;;;;;;7.00;7.00;;;;;19.23;53.59;100987.00;5055487;28;46153;-79
2022/08/28 05:34:07;;;;;;;;;7.00;7.00;;;;;19.07;53.61;100964.78;5055393;28;45736;-81
2022/08/28 05:36:34;;;;;;;;;7.00;7.00;;;;;19.15;53.92;100989.63;5056032;28;46306;-80
2022/08/28 05:39:04;;;;;;;;;9.00;7.50;;;;;19.21;53.90;100996.13;5056052;28;46312;-81
2022/08/28 05:44:50;;;;;;;;;7.00;6.00;;;;;19.16;54.27;100995.75;5056268;28;45559;-79
2022/08/28 05:47:16;;;;;;;;;6.75;5.00;;;;;19.17;54.41;100997.41;5056558;28;45549;-79
2022/08/28 05:49:42;;;;;;;;;8.75;7.00;;;;;19.17;54.15;101010.69;5058065;28;46095;-81
2022/08/28 05:52:07;;;;;;;;;8.00;7.00;;;;;19.18;54.50;101007.88;5058934;28;45698;-79
2022/08/28 05:54:33;;;;;;;;;7.00;6.00;;;;;19.14;54.30;101006.53;5062360;28;45553;-80
2022/08/28 05:56:58;;;;;;;;;7.25;7.25;;;;;19.18;54.82;101004.38;5062292;28;45618;-79
2022/08/28 05:59:24;;;;;;;;;6.25;6.25;;;;;19.18;54.93;101005.22;5058220;28;45694;-84
2022/08/28 06:01:50;;;;;;;;;8.25;7.50;;;;;19.19;55.00;101001.59;5061448;28;45294;-82
2022/08/28 06:04:24;;;;;;;;;7.50;7.50;;;;;19.22;54.14;101003.09;5064668;28;45664;-82
2022/08/28 06:06:49;;;;;;;;;7.00;7.00;;;;;19.16;55.01;100993.91;5058976;28;45899;-81
2022/08/28 06:09:18;;;;;;;;;8.00;7.00;;;;;19.08;54.30;100969.97;5058849;28;45674;-82
2022/08/28 06:15:05;;;;;;;;;8.25;8.25;;;;;19.24;54.63;101003.78;5061764;28;45625;-82
2022/08/28 06:17:31;;;;;;;;;8.25;7.00;;;;;19.17;55.20;100992.09;5055241;28;45632;-82
2022/08/28 06:19:56;;;;;;;;;7.00;6.25;;;;;19.25;54.54;101008.09;5054907;28;45586;-84
2022/08/28 06:22:22;;;;;;;;;9.00;7.75;;;;;19.22;54.60;101008.41;5055505;28;46032;-84
2022/08/28 06:24:47;;;;;;;;;8.75;7.00;;;;;19.17;55.13;100990.28;5057308;28;45889;-84
2022/08/28 06:27:12;;;;;;;;;8.00;8.00;;;;;19.17;54.79;100992.09;5061511;28;46765;-81
2022/08/28 06:29:38;;;;;;;;;7.75;7.50;;;;;19.26;54.98;101013.28;5060217;28;45745;-82
2022/08/28 06:32:04;;;;;;;;;4.25;4.25;;;;;19.11;55.19;100984.75;5059469;28;45910;-83
2022/08/28 06:34:29;;;;;;;;;7.50;7.00;;;;;19.23;55.44;101010.91;5056456;28;45680;-81
2022/08/28 06:36:55;;;;;;;;;6.00;6.00;;;;;19.19;54.91;100990.13;5054541;28;45767;-83
2022/08/28 06:39:21;;;;;;;;;7.50;7.50;;;;;19.32;55.13;101013.63;5054820;28;46213;-82
2022/08/28 06:45:09;;;;;;;;;7.50;7.00;;;;;19.28;54.83;101005.97;5054516;28;45546;-82
2022/08/28 06:47:34;;;;;;;;;8.25;8.00;;;;;19.18;54.97;100983.97;5054239;28;45637;-83
2022/08/28 06:50:00;;;;;;;;;7.00;7.00;;;;;19.14;55.09;100979.13;5054062;28;46035;-83
2022/08/28 06:52:25;;;;;;;;;9.75;8.25;;;;;19.41;55.56;101021.50;5054331;28;45887;-83
2022/08/28 06:54:50;;;;;;;;;7.25;7.00;;;;;19.33;55.24;101013.47;5054457;28;45667;-83
2022/08/28 06:57:16;;;;;;;;;7.75;7.50;;;;;19.42;55.13;101011.72;5054506;28;45615;-83
2022/08/28 06:59:41;;;;;;;;;6.50;6.50;;;;;19.43;54.87;101022.19;5053929;28;46173;-82
2022/08/28 07:02:08;;;;;;;;;9.25;8.00;;;;;19.39;55.51;101014.66;5055225;28;45553;-84
2022/08/28 07:04:34;;;;;;;;;8.50;6.00;;;;;19.45;55.43;101008.75;5057756;28;45629;-83
2022/08/28 07:06:59;;;;;;;;;8.50;7.50;;;;;19.37;55.36;101000.72;5056280;28;46384;-81
2022/08/28 07:09:24;;;;;;;;;8.50;7.75;;;;;19.48;55.44;101011.13;5055968;28;45740;-81
2022/08/28 07:15:11;;;;;;;;;6.50;6.25;;;;;19.43;55.14;101008.91;5054033;28;45616;-83
2022/08/28 07:17:37;;;;;;;;;7.00;7.00;;;;;19.57;55.35;101021.63;5054029;28;45696;-83
2022/08/28 07:20:03;;;;;;;;;8.50;8.00;;;;;19.47;54.59;101006.78;5035305;28;47066;-81
2022/08/28 07:22:29;;;;;;;;;11.50;7.00;;;;;19.60;54.69;101018.66;5054176;28;45982;-81
2022/08/28 07:24:55;;;;;;;;;7.00;6.25;;;;;19.62;54.89;101032.63;5054813;28;45797;-83
2022/08/28 07:31:09;;;;;;;;;6.25;6.25;;;;;19.74;55.06;101027.06;5052267;28;46736;-83
2022/08/28 07:33:36;;;;;;;;;10.25;9.00;;;;;19.72;55.23;101026.38;5054418;28;45527;-80
2022/08/28 07:36:03;;;;;;;;;9.25;8.25;;;;;19.75;55.05;101018.09;5035735;28;45876;-82
2022/08/28 07:38:29;;;;;;;;;7.75;7.00;;;;;19.80;54.77;101023.75;5056898;28;45635;-83
2022/08/28 07:40:54;;;;;;;;;8.00;7.25;;;;;19.77;54.94;101021.41;5056769;28;46014;-82
2022/08/28 07:46:07;;;;;;;;;7.75;7.00;;;;;19.87;55.02;101036.25;5057474;28;45628;-83
2022/08/28 07:48:34;;;;;;;;;8.75;8.00;;;;;19.78;55.06;101018.59;5039016;28;48035;-82
2022/08/28 07:51:00;;;;;;;;;8.00;7.75;;;;;19.91;54.88;101036.78;5056584;28;45864;-81
2022/08/28 07:53:26;;;;;;;;;7.75;6.75;;;;;19.93;54.96;101034.78;5057277;28;45803;-85
2022/08/28 07:55:51;;;;;;;;;10.75;8.00;;;;;19.85;54.65;101011.66;5057076;28;45782;-84
2022/08/28 07:58:19;;;;;;;;;8.00;7.50;;;;;19.93;54.83;101027.63;5056960;28;45717;-85
2022/08/28 08:00:44;;;;;;;;;6.75;6.75;;;;;19.99;54.61;101034.16;5056422;28;46068;-82
2022/08/28 08:03:10;;;;;;;;;8.25;8.25;;;;;19.86;55.10;101021.31;5056765;28;45633;-84
2022/08/28 08:05:36;;;;;;;;;8.75;8.75;;;;;19.97;55.02;101022.84;5056809;28;45621;-82
2022/08/28 08:08:02;;;;;;;;;9.25;8.00;;;;;20.04;54.83;101032.69;5056674;28;45988;-82
2022/08/28 08:10:27;;;;;;;;;10.25;8.75;;;;;20.07;55.08;101037.69;5037673;28;47713;-83
2022/08/28 08:12:52;;;;;;;;;10.00;8.25;;;;;20.08;54.86;101039.34;5059318;28;45689;-83
2022/08/28 08:15:18;;;;;;;;;12.25;9.00;;;;;20.10;54.92;101025.88;5070627;28;45551;-81
2022/08/28 08:17:44;;;;;;;;;8.00;7.00;;;;;20.15;54.66;101039.53;5069205;28;45524;-81
2022/08/28 08:20:09;;;;;;;;;7.75;7.75;;;;;20.19;54.69;101037.41;5058898;28;45667;-81
2022/08/28 08:22:35;;;;;;;;;12.75;10.75;;;;;20.11;54.85;101022.25;5056812;28;45651;-83
2022/08/28 08:25:03;;;;;;;;;10.50;8.75;;;;;19.91;54.67;100992.41;5056895;28;45548;-81
2022/08/28 08:31:04;;;;;;;;;8.00;8.00;;;;;20.22;54.76;101029.94;5055808;28;45914;-83
2022/08/28 08:33:31;;;;;;;;;8.00;7.50;;;;;20.22;54.46;101032.59;5058178;28;45616;-82
2022/08/28 08:35:56;;;;;;;;;9.50;9.00;;;;;20.21;54.86;101016.78;5058493;28;45764;-83
2022/08/28 08:38:22;;;;;;;;;10.00;8.00;;;;;20.37;54.30;101054.13;5059586;28;46432;-82
2022/08/28 08:40:47;;;;;;;;;8.50;8.50;;;;;20.41;54.62;101045.66;5056222;28;45519;-81
2022/08/28 08:43:17;;;;;;;;;12.00;9.25;;;;;20.45;54.54;101049.69;5056520;28;45669;-84
2022/08/28 08:45:45;;;;;;;;;9.00;8.00;;;;;20.41;53.97;101037.66;5056391;28;45650;-83
2022/08/28 08:48:33;;;;;;;;;11.00;10.00;;;;;20.55;53.86;101046.88;5056449;28;46504;-85
2022/08/28 08:51:05;;;;;;;;;7.50;7.50;;;;;20.52;53.93;101040.03;5055733;28;46116;-83
2022/08/28 08:53:45;;;;;;;;;11.50;8.00;;;;;20.65;54.08;101034.25;5055916;28;45697;-83
2022/08/28 08:56:17;;;;;;;;;8.50;7.25;;;;;20.71;53.83;101041.56;5038796;28;45573;-82
2022/08/28 08:58:48;;;;;;;;;11.00;9.75;;;;;20.57;53.86;101004.91;5057461;28;45564;-84
2022/08/28 09:01:36;;;;;;;;;14.00;11.50;;;;;20.78;53.62;101036.44;5039014;28;47291;-82
2022/08/28 09:04:24;;;;;;;;;12.50;10.75;;;;;20.81;53.59;101038.75;5057796;28;45732;-82
2022/08/28 09:07:02;;;;;;;;;13.25;11.50;;;;;20.84;53.57;101041.91;5057743;28;45536;-83
2022/08/28 09:09:51;;;;;;;;;11.00;9.00;;;;;20.88;53.48;101031.78;5056139;28;45695;-83
2022/08/28 09:12:21;;;;;;;;;12.75;9.75;;;;;20.91;53.42;101029.59;5056501;28;46262;-83
2022/08/28 09:15:08;;;;;;;;;14.50;12.75;;;;;20.78;53.16;101001.81;5038875;28;45767;-82
2022/08/28 09:17:52;;;;;;;;;10.00;9.25;;;;;20.98;53.35;101019.13;5056587;28;45712;-83
2022/08/28 09:20:26;;;;;;;;;12.00;11.50;;;;;20.99;53.07;101028.78;5055267;28;45835;-82
2022/08/28 09:22:52;;;;;;;;;8.00;7.50;;;;;21.01;52.85;101020.59;5037556;28;47423;-83
2022/08/28 09:28:41;;;;;;;;;12.75;11.50;;;;;21.07;53.02;101025.28;4993651;28;46056;-82
2022/08/28 09:31:12;;;;;;;;;13.50;11.50;;;;;21.18;52.46;101038.31;4997553;28;45712;-82
2022/08/28 09:33:46;;;;;;;;;16.00;14.50;;;;;21.14;52.67;101026.28;4994729;28;46225;-83
2022/08/28 09:36:33;;;;;;;;;13.00;11.25;;;;;21.25;52.74;101037.47;4993541;28;45860;-83
2022/08/28 09:39:06;;;;;;;;;15.25;13.50;;;;;21.30;52.35;101044.97;4993590;28;45627;-83
2022/08/28 09:45:12;;;;;;;;;15.50;12.75;;;;;21.40;51.93;101018.97;4994556;28;46000;-84
2022/08/28 09:48:01;;;;;;;;;10.00;9.50;;;;;21.42;51.99;101019.63;4994734;28;45766;-87
2022/08/28 09:50:34;;;;;;;;;13.25;11.50;;;;;21.44;52.24;101014.09;4995019;28;45777;-83
2022/08/28 09:53:16;;;;;;;;;12.75;8.75;;;;;21.57;51.75;101025.94;4996468;28;46926;-83
2022/08/28 09:55:47;;;;;;;;;13.75;13.25;;;;;21.61;51.44;101024.59;4996420;28;45699;-83
2022/08/28 10:01:49;;;;;;;;;15.25;13.50;;;;;21.71;51.45;101022.56;4993546;28;45882;-83
2022/08/28 10:04:15;;;;;;;;;12.50;11.50;;;;;21.74;51.11;101013.38;5000621;28;46764;-82
2022/08/28 10:06:47;;;;;;;;;13.50;11.50;;;;;21.78;51.54;101015.53;5057027;28;46534;-83
2022/08/28 10:09:30;;;;;;;;;15.50;13.00;;;;;21.84;50.95;101016.69;5056477;28;45562;-85
2022/08/28 10:12:11;;;;;;;;;12.25;11.25;;;;;21.89;51.15;101010.84;5062568;28;45822;-83
2022/08/28 10:14:37;;;;;;;;;16.25;14.25;;;;;21.94;50.73;101013.81;5058081;28;46710;-82
2022/08/28 10:17:15;;;;;;;;;12.00;11.00;;;;;21.98;50.98;101020.50;5057550;28;46063;-83
2022/08/28 10:20:07;;;;;;;;;13.50;11.25;;;;;22.02;50.54;101017.31;5055673;28;45662;-83
2022/08/28 10:22:47;;;;;;;;;14.00;11.00;;;;;22.05;50.46;101021.47;5055000;28;45651;-84
2022/08/28 10:25:22;;;;;;;;;15.50;14.50;;;;;21.98;50.31;100993.81;5055078;28;46520;-82
2022/08/28 10:28:04;;;;;;;;;10.50;10.25;;;;;22.13;50.24;101008.91;5055051;28;46035;-84
2022/08/28 10:30:36;;;;;;;;;12.00;10.25;;;;;22.17;49.85;101001.41;5057383;28;45736;-84
2022/08/28 10:33:19;;;;;;;;;13.50;12.00;;;;;22.29;49.98;101015.19;5058180;28;45661;-84
2022/08/28 10:36:01;;;;;;;;;11.00;10.00;;;;;22.37;49.86;101007.13;5056424;28;45596;-84
2022/08/28 10:38:47;;;;;;;;;13.50;12.50;;;;;22.44;49.48;100997.41;5055048;28;46105;-82
2022/08/28 10:44:09;;;;;;;;;10.75;10.00;;;;;22.52;48.94;101008.88;5061751;28;45554;-83
2022/08/28 10:46:43;;;;;;;;;14.00;14.00;;;;;22.47;49.01;101000.56;5062605;28;45535;-80
2022/08/28 10:49:09;;;;;;;;;12.00;11.00;;;;;22.63;49.13;101012.13;5041082;28;47439;-82
2022/08/28 10:51:42;;;;;;;;;15.00;14.00;;;;;22.63;48.51;101004.13;5055517;28;45611;-83
2022/08/28 10:54:13;;;;;;;;;11.00;10.75;;;;;22.73;48.44;101010.09;5059030;28;45520;-82
2022/08/28 11:00:17;;;;;;;;;12.50;10.00;;;;;22.77;48.49;100995.38;5057392;28;45688;-82
2022/08/28 11:02:59;;;;;;;;;10.25;8.50;;;;;22.96;48.86;101010.91;5061564;28;45516;-83
2022/08/28 11:05:32;;;;;;;;;12.50;12.00;;;;;23.04;48.61;101005.53;5058437;28;45883;-82
2022/08/28 11:08:02;;;;;;;;;13.75;10.50;;;;;22.90;48.18;100976.91;5057430;28;46752;-84
2022/08/28 11:10:31;;;;;;;;;7.25;7.25;;;;;23.17;47.87;101008.41;5054513;28;46457;-80
2022/08/28 11:16:21;;;;;;;;;8.00;8.00;;;;;23.30;47.56;101000.59;5057169;28;45672;-83
2022/08/28 11:19:06;;;;;;;;;9.00;9.00;;;;;23.34;47.35;101004.56;5056513;28;46461;-80
2022/08/28 11:21:59;;;;;;;;;8.00;8.00;;;;;23.42;47.02;101007.19;5057303;28;46457;-80
2022/08/28 11:24:32;;;;;;;;;9.00;7.50;;;;;23.46;47.18;100991.63;5056952;28;45574;-80
2022/08/28 11:27:29;;;;;;;;;7.50;7.00;;;;;23.59;47.17;100994.47;5057250;28;45582;-82
2022/08/28 11:30:30;;;;;;;;;9.75;8.75;;;;;23.60;46.33;100987.25;5056719;28;45762;-80
2022/08/28 11:32:58;;;;;;;;;9.00;9.00;;;;;23.55;46.36;100965.59;5057259;28;45968;-80
2022/08/28 11:35:43;;;;;;;;;9.50;8.50;;;;;23.81;46.74;100993.53;5057156;28;45713;-83
2022/08/28 11:38:10;;;;;;;;;11.25;10.00;;;;;23.88;46.07;100995.47;5057093;28;45641;-81
2022/08/28 11:40:49;;;;;;;;;8.50;8.25;;;;;23.92;46.04;100994.91;5038167;28;47600;-82
2022/08/28 11:43:14;;;;;;;;;12.25;10.75;;;;;23.97;46.24;100995.19;5057040;28;46047;-81
2022/08/28 11:45:44;;;;;;;;;8.00;8.00;;;;;24.00;45.69;100994.81;5056892;28;45585;-82
2022/08/28 11:48:21;;;;;;;;;8.75;8.00;;;;;24.05;45.54;101003.13;5058166;28;45579;-81
2022/08/28 11:51:01;;;;;;;;;8.00;8.00;;;;;24.12;45.21;101001.38;5056916;28;46711;-83
2022/08/28 11:53:40;;;;;;;;;9.75;8.25;;;;;24.21;44.99;101007.47;5038524;28;46194;-82
2022/08/28 11:56:28;;;;;;;;;9.25;8.50;;;;;24.22;44.72;100993.91;5056888;28;45820;-83
2022/08/28 11:58:56;;;;;;;;;10.25;9.25;;;;;24.36;44.88;100999.38;5056136;28;45666;-83
2022/08/28 12:01:36;;;;;;;;;12.00;10.00;;;;;24.36;44.70;100988.66;5037953;28;47631;-82
2022/08/28 12:04:11;;;;;;;;;9.75;9.00;;;;;24.33;44.72;100964.97;5056412;28;46279;-83
2022/08/28 12:06:58;;;;;;;;;7.25;7.00;;;;;24.62;44.30;100999.66;5056677;28;45477;-82
2022/08/28 12:09:38;;;;;;;;;8.25;8.00;;;;;24.70;43.96;100996.03;5056383;28;45589;-83
2022/08/28 12:15:28;;;;;;;;;9.00;9.00;;;;;24.81;43.63;101004.41;5055996;28;46116;-81
2022/08/28 12:18:13;;;;;;;;;8.75;8.00;;;;;24.86;43.39;100998.47;5038525;28;45972;-84
2022/08/28 12:20:58;;;;;;;;;9.75;8.00;;;;;24.90;43.29;101002.44;5038613;28;45574;-81
2022/08/28 12:23:55;;;;;;;;;10.00;9.75;;;;;24.90;43.42;100997.91;5057135;28;45575;-83
2022/08/28 12:26:31;;;;;;;;;7.25;7.00;;;;;24.89;43.27;100977.47;5058851;28;46365;-84
2022/08/28 12:32:28;;;;;;;;;7.50;7.00;;;;;25.17;43.91;100998.97;5056958;28;45820;-83
2022/08/28 12:34:56;;;;;;;;;8.00;7.00;;;;;25.27;43.19;100996.75;5058901;28;45680;-84
2022/08/28 12:37:57;;;;;;;;;7.00;6.00;;;;;25.38;43.08;100987.34;5059562;28;45860;-83
2022/08/28 12:40:32;;;;;;;;;7.00;7.00;;;;;25.50;42.68;100983.94;5063262;28;45818;-83
2022/08/28 12:43:08;;;;;;;;;9.00;9.00;;;;;25.51;43.08;100976.72;5077031;28;45708;-82
2022/08/28 12:46:11;;;;;;;;;8.00;6.75;;;;;25.74;42.73;100981.84;5075467;28;46522;-83
2022/08/28 12:48:49;;;;;;;;;9.50;8.00;;;;;25.85;42.50;100984.78;5009227;28;45861;-84
2022/08/28 12:51:20;;;;;;;;;6.50;6.50;;;;;25.93;42.66;100973.03;5008612;28;45603;-81
2022/08/28 12:53:51;;;;;;;;;9.00;6.50;;;;;26.04;41.35;100977.00;4999816;28;45765;-84
2022/08/28 12:56:19;;;;;;;;;8.00;7.75;;;;;26.09;41.68;100974.53;4997907;28;45584;-84
2022/08/28 12:58:45;;;;;;;;;8.00;7.00;;;;;26.07;41.19;100968.56;4996199;28;46371;-83